Time;durP1;ratioP1;P1;durP2;ratioP2;P2;SDS_P1;SDS_P2;PMS_P1;PMS_P2;Temp;Humidity;BMP_temperature;BMP_pressure;BME280_temperature;BME280_humidity;BME280_pressure;Samples;Min_cycle;Max_cycle;Signal;HPM_P1;HPM_P2
2022/11/01 00:01:45;;;;;;;77.47;36.97;;;;;;;12.77;100.00;101153.94;6188795;23;20011;-71
2022/11/01 00:04:10;;;;;;;86.25;39.85;;;;;;;12.69;100.00;101167.53;6189845;23;20004;-72
2022/11/01 00:06:36;;;;;;;94.93;40.20;;;;;;;12.77;100.00;101156.66;6189013;23;20424;-71
2022/11/01 00:09:02;;;;;;;92.72;39.15;;;;;;;12.70;100.00;101161.06;6190178;23;20008;-71
2022/11/01 00:11:28;;;;;;;83.85;37.58;;;;;;;12.80;100.00;101157.38;6190075;23;20000;-71
2022/11/01 00:13:53;;;;;;;83.72;39.45;;;;;;;12.75;100.00;101147.84;6190264;23;20071;-72
2022/11/01 00:16:19;;;;;;;70.95;35.38;;;;;;;12.85;100.00;101144.16;6189215;23;20012;-71
2022/11/01 00:18:45;;;;;;;85.60;38.60;;;;;;;12.80;100.00;101146.50;6188500;23;20004;-72
2022/11/01 00:21:11;;;;;;;79.78;37.95;;;;;;;12.66;100.00;101124.41;6190360;23;20005;-72
2022/11/01 00:23:37;;;;;;;79.43;37.35;;;;;;;12.73;100.00;101147.16;6187786;23;20005;-71
2022/11/01 00:26:03;;;;;;;87.22;40.03;;;;;;;12.58;100.00;101159.66;6190592;23;19997;-74
2022/11/01 00:28:29;;;;;;;85.43;37.92;;;;;;;12.64;100.00;101148.13;6187989;23;19997;-73
2022/11/01 00:30:55;;;;;;;81.90;41.55;;;;;;;12.62;100.00;101146.63;6188645;23;20001;-73
2022/11/01 00:33:21;;;;;;;83.47;39.53;;;;;;;12.75;100.00;101144.28;6188135;23;20009;-73
2022/11/01 00:35:47;;;;;;;83.82;40.95;;;;;;;12.72;100.00;101153.63;6187476;23;20131;-72
2022/11/01 00:38:15;;;;;;;89.40;38.80;;;;;;;12.74;100.00;101162.44;6187718;23;20011;-73
2022/11/01 00:40:41;;;;;;;94.68;41.65;;;;;;;12.69;100.00;101162.09;6188222;23;20009;-73
2022/11/01 00:43:07;;;;;;;89.82;40.03;;;;;;;12.74;100.00;101162.44;6188634;23;20028;-73
2022/11/01 00:45:32;;;;;;;94.18;43.90;;;;;;;12.69;100.00;101153.94;6187560;23;20005;-73
2022/11/01 00:47:58;;;;;;;83.32;43.20;;;;;;;12.68;100.00;101138.66;6189397;23;20004;-73
2022/11/01 00:50:24;;;;;;;94.43;42.67;;;;;;;12.67;100.00;101136.97;6190293;23;20036;-73
2022/11/01 00:52:50;;;;;;;85.90;42.00;;;;;;;12.82;100.00;101133.59;6188454;23;20013;-73
2022/11/01 00:55:15;;;;;;;86.53;40.17;;;;;;;12.76;100.00;101114.22;6188552;23;20011;-73
2022/11/01 00:57:43;;;;;;;98.55;44.65;;;;;;;12.72;100.00;101118.31;6189805;23;20012;-73
2022/11/01 01:00:10;;;;;;;85.15;43.55;;;;;;;12.76;100.00;101108.78;6190537;23;20009;-73
2022/11/01 01:02:35;;;;;;;86.63;43.67;;;;;;;12.69;100.00;101096.88;6190572;23;20328;-73
2022/11/01 01:05:00;;;;;;;112.45;47.60;;;;;;;12.63;100.00;101092.13;6190966;23;20044;-73
2022/11/01 01:07:26;;;;;;;99.72;47.10;;;;;;;12.65;100.00;101095.53;6190244;23;19997;-73
2022/11/01 01:09:51;;;;;;;93.07;47.22;;;;;;;12.65;100.00;101098.25;6190444;23;20013;-73
2022/11/01 01:12:16;;;;;;;102.82;47.85;;;;;;;12.65;100.00;101095.53;6190599;23;20448;-73
2022/11/01 01:14:42;;;;;;;98.22;44.97;;;;;;;12.76;100.00;101103.34;6190167;23;20084;-73
2022/11/01 01:17:07;;;;;;;95.50;46.78;;;;;;;12.74;100.00;101088.25;6190022;23;20535;-73
2022/11/01 01:19:33;;;;;;;88.38;43.10;;;;;;;12.77;100.00;101102.31;6188664;23;20055;-73
2022/11/01 01:21:59;;;;;;;102.68;47.22;;;;;;;12.89;100.00;101102.00;6191115;23;20424;-73
2022/11/01 01:24:25;;;;;;;96.40;44.85;;;;;;;12.85;100.00;101095.22;6190757;23;20005;-73
2022/11/01 01:26:50;;;;;;;84.47;42.40;;;;;;;12.84;100.00;101101.66;6189734;23;20004;-73
2022/11/01 01:29:16;;;;;;;94.88;45.05;;;;;;;12.95;100.00;101090.47;6179034;23;20001;-73
2022/11/01 01:31:41;;;;;;;111.53;46.22;;;;;;;12.97;100.00;101093.88;6188623;23;20083;-73
2022/11/01 01:34:07;;;;;;;92.20;44.67;;;;;;;13.02;100.00;101080.63;6189656;23;20005;-73
2022/11/01 01:36:32;;;;;;;96.88;46.05;;;;;;;13.03;100.00;101076.88;6189859;23;20004;-73
2022/11/01 01:38:57;;;;;;;97.47;45.42;;;;;;;13.08;100.00;101073.66;6190193;23;20015;-73
2022/11/01 01:44:44;;;;;;;93.55;42.35;;;;;;;13.04;100.00;101068.59;6191030;23;20428;-73
2022/11/01 01:47:14;;;;;;;82.30;43.45;;;;;;;13.03;100.00;101066.00;6190361;23;20008;-73
2022/11/01 01:49:40;;;;;;;97.93;45.85;;;;;;;13.00;100.00;101050.06;6190385;23;20001;-73
2022/11/01 01:52:05;;;;;;;97.25;45.60;;;;;;;12.99;100.00;101042.91;6189992;23;20007;-73
2022/11/01 01:54:31;;;;;;;101.70;47.25;;;;;;;13.11;100.00;101041.56;6191866;23;20029;-73
2022/11/01 01:56:57;;;;;;;103.13;46.65;;;;;;;13.04;100.00;101046.84;6190710;23;20012;-73
2022/11/01 01:59:23;;;;;;;107.13;48.53;;;;;;;13.09;100.00;101038.16;6190125;23;20004;-73
2022/11/01 02:01:49;;;;;;;90.75;44.90;;;;;;;13.07;100.00;101040.19;6190077;23;20004;-73
2022/11/01 02:04:23;;;;;;;100.80;45.15;;;;;;;13.20;100.00;101023.38;6189735;23;20001;-73
2022/11/01 02:06:48;;;;;;;107.15;47.72;;;;;;;13.37;100.00;101021.53;6191944;23;20020;-73
2022/11/01 02:09:15;;;;;;;95.25;46.95;;;;;;;13.29;100.00;100993.28;6191063;23;20005;-74
2022/11/01 02:11:40;;;;;;;104.40;47.67;;;;;;;13.28;100.00;100994.31;6190435;23;20071;-73
2022/11/01 02:14:06;;;;;;;91.65;45.35;;;;;;;13.40;100.00;100996.69;6189197;23;20009;-73
2022/11/01 02:16:38;;;;;;;101.70;45.45;;;;;;;13.30;100.00;100991.41;6189457;23;20071;-73
2022/11/01 02:19:40;;;;;;;99.20;48.72;;;;;;;13.32;100.00;100983.09;6189985;23;20017;-73
2022/11/01 02:22:05;;;;;;;106.43;48.85;;;;;;;13.27;100.00;100981.75;6189758;23;20336;-73
2022/11/01 02:24:46;;;;;;;110.82;53.08;;;;;;;13.21;100.00;100982.44;6191236;23;20008;-73
2022/11/01 02:27:27;;;;;;;112.47;52.13;;;;;;;13.32;100.00;100977.66;6189728;23;19997;-73
2022/11/01 02:30:10;;;;;;;117.13;53.90;;;;;;;13.23;100.00;100974.94;6189786;23;20242;-73
2022/11/01 02:32:44;;;;;;;116.35;49.75;;;;;;;13.27;100.00;100970.88;6191863;23;20001;-73
2022/11/01 02:35:18;;;;;;;124.85;52.53;;;;;;;13.23;100.00;100969.50;6189212;23;19997;-72
2022/11/01 02:37:55;;;;;;;123.07;53.95;;;;;;;13.37;100.00;100953.53;6188601;23;20031;-73
2022/11/01 02:40:44;;;;;;;125.60;55.35;;;;;;;13.26;100.00;100949.28;6180653;23;20046;-72
2022/11/01 02:43:21;;;;;;;120.40;52.25;;;;;;;13.27;100.00;100942.81;6189843;23;20092;-73
2022/11/01 02:45:49;;;;;;;123.07;53.67;;;;;;;13.32;100.00;100939.59;6189888;23;20005;-72
2022/11/01 02:48:16;;;;;;;136.63;58.42;;;;;;;13.23;100.00;100926.00;6189310;23;20001;-72
2022/11/01 02:50:46;;;;;;;117.63;53.92;;;;;;;13.42;100.00;100934.78;6189618;23;20001;-72
2022/11/01 02:53:12;;;;;;;128.60;56.45;;;;;;;13.42;100.00;100930.19;6189268;23;20039;-72
2022/11/01 02:55:37;;;;;;;120.90;55.50;;;;;;;13.47;100.00;100910.63;6189114;23;19997;-72
2022/11/01 02:58:03;;;;;;;145.70;56.97;;;;;;;13.43;100.00;100898.41;6190576;23;20084;-72
2022/11/01 03:00:34;;;;;;;130.40;55.95;;;;;;;13.49;100.00;100908.56;6190930;23;20087;-72
2022/11/01 03:03:11;;;;;;;130.65;60.17;;;;;;;13.48;100.00;100920.50;6191419;23;20084;-72
2022/11/01 03:05:50;;;;;;;120.20;52.78;;;;;;;13.54;100.00;100927.94;6188988;23;20096;-72
2022/11/01 03:08:27;;;;;;;129.20;54.50;;;;;;;13.53;100.00;100928.97;6189051;23;20000;-72
2022/11/01 03:10:59;;;;;;;129.93;54.30;;;;;;;13.53;100.00;100926.25;6188989;23;20001;-72
2022/11/01 03:13:43;;;;;;;;;;;;;;;13.52;100.00;100919.13;6189476;23;20011;-72
2022/11/01 03:16:18;;;;;;;123.88;56.08;;;;;;;13.49;100.00;100914.88;6190908;23;19948;-72
2022/11/01 03:18:57;;;;;;;124.50;57.53;;;;;;;13.53;100.00;100909.94;6189357;23;20017;-72
2022/11/01 03:21:25;;;;;;;135.38;55.80;;;;;;;13.52;100.00;100913.69;6189281;23;20499;-72
2022/11/01 03:24:00;;;;;;;136.07;59.72;;;;;;;13.53;100.00;100902.63;6176963;23;20005;-74
2022/11/01 03:26:30;;;;;;;129.57;57.17;;;;;;;13.54;100.00;100906.19;6165442;23;20032;-75
2022/11/01 03:29:05;;;;;;;120.85;56.97;;;;;;;13.64;100.00;100900.53;6165527;23;20416;-74
2022/11/01 03:31:35;;;;;;;129.23;59.28;;;;;;;13.69;100.00;100892.66;6165973;23;19996;-74
2022/11/01 03:34:03;;;;;;;127.97;57.45;;;;;;;13.58;100.00;100886.63;6165150;23;20395;-74
2022/11/01 03:36:37;;;;;;;122.13;55.75;;;;;;;13.63;100.00;100888.81;6164511;23;20087;-75
2022/11/01 03:39:13;;;;;;;120.53;55.72;;;;;;;13.68;100.00;100880.09;6190995;23;20001;-74
2022/11/01 03:41:44;;;;;;;122.75;55.70;;;;;;;13.66;100.00;100872.13;6190951;23;20206;-74
2022/11/01 03:44:12;;;;;;;129.40;57.20;;;;;;;13.73;100.00;100878.53;6191170;23;20000;-75
2022/11/01 03:46:38;;;;;;;125.75;55.97;;;;;;;13.63;100.00;100871.63;6164513;23;19996;-74
2022/11/01 03:49:03;;;;;;;119.32;56.85;;;;;;;13.64;100.00;100860.59;6190987;23;20076;-74
2022/11/01 03:51:28;;;;;;;116.40;54.40;;;;;;;13.75;100.00;100881.91;6189616;23;20011;-74
2022/11/01 03:53:54;;;;;;;112.45;51.00;;;;;;;13.67;100.00;100879.25;6164803;23;20000;-75
2022/11/01 03:56:20;;;;;;;123.28;56.10;;;;;;;13.73;100.00;100878.53;6165052;23;20037;-75
2022/11/01 03:58:45;;;;;;;121.13;55.95;;;;;;;13.66;100.00;100866.69;6164543;23;19997;-75
2022/11/01 04:01:13;;;;;;;123.30;54.40;;;;;;;13.69;100.00;100866.34;6164542;23;20007;-74
2022/11/01 04:03:39;;;;;;;120.68;56.03;;;;;;;13.62;100.00;100876.22;6191094;23;20005;-74
2022/11/01 04:06:05;;;;;;;124.55;55.25;;;;;;;13.57;100.00;100873.19;6162898;23;20522;-73
2022/11/01 04:08:31;;;;;;;119.43;54.75;;;;;;;13.59;100.00;100865.69;6165333;23;20001;-73
2022/11/01 04:10:57;;;;;;;129.43;56.08;;;;;;;13.69;100.00;100860.91;6190676;23;20025;-75
2022/11/01 04:13:22;;;;;;;121.07;55.10;;;;;;;13.56;100.00;100871.47;6164547;23;20001;-74
2022/11/01 04:21:19;;;;;;;119.88;57.45;;;;;;;13.60;100.00;100856.50;6190775;23;20001;-74
2022/11/01 04:23:46;;;;;;;131.10;59.25;;;;;;;13.53;100.00;100850.09;6154383;23;20021;-74
2022/11/01 04:26:14;;;;;;;115.97;55.25;;;;;;;13.70;100.00;100851.69;6164078;23;20039;-74
2022/11/01 04:28:40;;;;;;;123.85;54.80;;;;;;;13.54;100.00;100857.22;6164330;23;20016;-73
2022/11/01 04:31:06;;;;;;;134.20;56.63;;;;;;;13.60;100.00;100859.22;6164843;23;20183;-72
2022/11/01 04:33:32;;;;;;;122.47;57.00;;;;;;;13.58;100.00;100847.69;6166169;23;20030;-73
2022/11/01 04:35:57;;;;;;;125.18;54.63;;;;;;;13.52;100.00;100854.69;6192737;23;20051;-73
2022/11/01 04:38:23;;;;;;;118.43;54.85;;;;;;;13.60;100.00;100856.50;6166588;23;19997;-73
2022/11/01 04:40:48;;;;;;;125.30;56.83;;;;;;;13.51;100.00;100863.88;6192891;23;19997;-73
2022/11/01 04:43:14;;;;;;;135.90;55.10;;;;;;;13.51;100.00;100852.16;6166078;23;20009;-74
2022/11/01 04:45:39;;;;;;;122.93;58.55;;;;;;;13.53;100.00;100845.50;6166838;23;20042;-73
2022/11/01 04:48:12;;;;;;;125.50;55.70;;;;;;;13.56;100.00;100849.72;6166311;23;19997;-74
2022/11/01 04:50:38;;;;;;;128.32;58.50;;;;;;;13.57;100.00;100856.88;6166355;23;20050;-74
2022/11/01 04:53:04;;;;;;;137.23;58.75;;;;;;;13.48;100.00;100847.03;6192617;23;20005;-74
2022/11/01 04:55:30;;;;;;;119.35;53.88;;;;;;;13.49;100.00;100848.75;6190974;23;20048;-73
2022/11/01 04:57:55;;;;;;;124.82;56.70;;;;;;;13.60;100.00;100859.22;6166309;23;20015;-74
2022/11/01 05:00:21;;;;;;;140.45;58.72;;;;;;;13.55;100.00;100853.47;6166262;23;20001;-74
2022/11/01 05:02:47;;;;;;;124.88;57.00;;;;;;;13.52;100.00;100848.41;6165948;23;20001;-74
2022/11/01 05:05:12;;;;;;;138.27;61.00;;;;;;;13.50;100.00;100840.41;6165897;23;20004;-73
2022/11/01 05:07:38;;;;;;;126.03;57.72;;;;;;;13.55;100.00;100831.72;6166280;23;20001;-73
2022/11/01 05:10:05;;;;;;;121.53;56.20;;;;;;;13.67;100.00;100838.44;6166510;23;20008;-73
2022/11/01 05:12:31;;;;;;;132.68;57.97;;;;;;;13.55;100.00;100837.16;6166312;23;20394;-73
2022/11/01 05:14:56;;;;;;;133.00;60.70;;;;;;;13.49;100.00;100826.97;6166133;23;20040;-73
2022/11/01 05:17:22;;;;;;;135.13;58.88;;;;;;;13.48;100.00;100841.59;6165955;23;19997;-74
2022/11/01 05:19:47;;;;;;;127.25;58.20;;;;;;;13.44;100.00;100829.41;6166017;23;20416;-74
2022/11/01 05:22:12;;;;;;;126.13;60.00;;;;;;;13.46;100.00;100838.22;6166299;23;20032;-74
2022/11/01 05:24:38;;;;;;;133.90;58.85;;;;;;;13.48;100.00;100833.44;6165966;23;20001;-74
2022/11/01 05:27:03;;;;;;;134.35;63.13;;;;;;;13.50;100.00;100834.13;6190517;23;19997;-74
2022/11/01 05:29:29;;;;;;;140.45;62.03;;;;;;;13.51;100.00;100852.16;6190876;23;20015;-73
2022/11/01 05:31:54;;;;;;;137.20;60.67;;;;;;;13.42;100.00;100847.75;6166264;23;20004;-73
2022/11/01 05:34:19;;;;;;;143.45;63.50;;;;;;;13.41;100.00;100851.50;6165971;23;19997;-73
2022/11/01 05:36:45;;;;;;;143.35;63.53;;;;;;;13.38;100.00;100844.56;6165869;23;20001;-73
2022/11/01 05:39:11;;;;;;;142.23;63.13;;;;;;;13.46;100.00;100849.09;6165511;23;20026;-74
2022/11/01 05:41:36;;;;;;;143.50;65.28;;;;;;;13.46;100.00;100843.66;6191015;23;20055;-73
2022/11/01 05:44:02;;;;;;;136.95;64.22;;;;;;;13.44;100.00;100840.28;6165267;23;20005;-74
2022/11/01 05:46:27;;;;;;;153.57;66.78;;;;;;;13.36;100.00;100827.56;6165407;23;20087;-73
2022/11/01 05:48:52;;;;;;;147.45;64.40;;;;;;;13.46;100.00;100811.88;6165753;23;20008;-73
2022/11/01 05:51:18;;;;;;;152.07;64.78;;;;;;;13.39;100.00;100823.66;6192065;23;20000;-73
2022/11/01 05:53:43;;;;;;;151.85;64.25;;;;;;;13.34;100.00;100817.88;6190788;23;20009;-76
2022/11/01 05:56:09;;;;;;;134.95;61.83;;;;;;;13.38;100.00;100830.13;6166023;23;20079;-73
2022/11/01 05:58:34;;;;;;;147.65;62.67;;;;;;;13.38;100.00;100841.00;6165794;23;20458;-74
2022/11/01 06:01:03;;;;;;;142.75;61.67;;;;;;;13.40;100.00;100844.38;6165888;23;20086;-74
2022/11/01 06:03:28;;;;;;;146.60;64.47;;;;;;;13.39;100.00;100845.41;6165903;23;20012;-74
2022/11/01 06:05:54;;;;;;;139.30;63.83;;;;;;;13.39;100.00;100842.69;6165680;23;20001;-74
2022/11/01 06:08:19;;;;;;;137.15;64.93;;;;;;;13.44;100.00;100852.00;6165944;23;20024;-75
2022/11/01 06:10:45;;;;;;;144.70;65.90;;;;;;;13.33;100.00;100859.72;6164992;23;19997;-74
2022/11/01 06:13:10;;;;;;;141.63;60.63;;;;;;;13.43;100.00;100849.44;6165465;23;20036;-74
2022/11/01 06:15:36;;;;;;;142.20;63.42;;;;;;;13.37;100.00;100844.75;6191936;23;20004;-75
2022/11/01 06:18:03;;;;;;;151.18;64.00;;;;;;;13.40;100.00;100844.38;6192043;23;20013;-75
2022/11/01 06:20:29;;;;;;;152.48;66.10;;;;;;;13.28;100.00;100827.59;6165534;23;20012;-73
2022/11/01 06:22:56;;;;;;;145.60;65.53;;;;;;;13.30;100.00;100845.44;6165313;23;20008;-73
2022/11/01 06:25:21;;;;;;;139.48;62.45;;;;;;;13.46;100.00;100849.09;6136039;23;20001;-73
2022/11/01 06:27:47;;;;;;;143.65;62.55;;;;;;;13.45;100.00;100847.41;6135885;23;20008;-73
2022/11/01 06:30:13;;;;;;;155.20;71.40;;;;;;;13.42;100.00;100853.19;6135549;23;20004;-73
2022/11/01 06:32:38;;;;;;;140.73;61.10;;;;;;;13.41;100.00;100851.50;6162187;23;20001;-73
2022/11/01 06:35:04;;;;;;;134.00;62.88;;;;;;;13.54;100.00;100852.63;6135487;23;20008;-73
2022/11/01 06:37:29;;;;;;;130.45;61.03;;;;;;;13.47;100.00;100856.25;6161491;23;20005;-73
2022/11/01 06:39:55;;;;;;;140.60;60.85;;;;;;;13.40;100.00;100855.25;6135699;23;20084;-72
2022/11/01 06:42:20;;;;;;;148.45;66.22;;;;;;;13.39;100.00;100864.44;6135891;23;20052;-75
2022/11/01 06:44:46;;;;;;;134.05;64.75;;;;;;;13.38;100.00;100868.19;6135880;23;20003;-73
2022/11/01 06:47:11;;;;;;;146.15;64.75;;;;;;;13.35;100.00;100863.94;6135757;23;20005;-73
2022/11/01 06:49:36;;;;;;;142.10;63.38;;;;;;;13.49;100.00;100868.63;6136003;23;20051;-73
2022/11/01 06:52:03;;;;;;;136.18;64.35;;;;;;;13.35;100.00;100873.97;6135708;23;20080;-74
2022/11/01 06:54:29;;;;;;;154.02;66.65;;;;;;;13.36;100.00;100886.53;6135628;23;19997;-74
2022/11/01 06:56:54;;;;;;;166.40;68.03;;;;;;;13.34;100.00;100878.56;6135710;23;20013;-73
2022/11/01 06:59:20;;;;;;;145.75;67.28;;;;;;;13.42;100.00;100885.84;6162382;23;20088;-72
2022/11/01 07:01:45;;;;;;;141.35;63.53;;;;;;;13.39;100.00;100880.75;6136236;23;20009;-71
2022/11/01 07:04:11;;;;;;;145.18;66.05;;;;;;;13.43;100.00;100890.25;6141241;23;20005;-72
2022/11/01 07:06:36;;;;;;;155.60;66.80;;;;;;;13.41;100.00;100895.03;6167423;23;20005;-70
2022/11/01 07:09:02;;;;;;;136.48;63.60;;;;;;;13.49;100.00;100897.69;6143211;23;20050;-71
2022/11/01 07:11:27;;;;;;;135.85;61.95;;;;;;;13.41;100.00;100895.03;6142516;23;20005;-73
2022/11/01 07:13:52;;;;;;;136.00;61.75;;;;;;;13.44;100.00;100894.69;6143180;23;20009;-71
2022/11/01 07:16:18;;;;;;;138.10;60.47;;;;;;;13.44;100.00;100894.69;6168692;23;19998;-71
2022/11/01 07:18:43;;;;;;;131.98;62.30;;;;;;;13.52;100.00;100897.38;6142679;23;20012;-71
2022/11/01 07:21:09;;;;;;;146.95;63.80;;;;;;;13.52;100.00;100908.25;6139683;23;20001;-73
2022/11/01 07:23:34;;;;;;;137.90;62.70;;;;;;;13.69;100.00;100904.44;6145672;23;20084;-72
2022/11/01 07:26:07;;;;;;;134.80;62.45;;;;;;;13.56;100.00;100909.56;5110691;27;20133;-71
2022/11/01 07:28:32;;;;;;;127.25;62.30;;;;;;;13.66;100.00;100899.34;5108612;28;20089;-72
2022/11/01 07:30:58;;;;;;;135.68;63.42;;;;;;;13.61;100.00;100901.72;5108665;28;20114;-72
2022/11/01 07:33:23;;;;;;;121.93;58.35;;;;;;;13.56;100.00;100910.44;5108006;28;20023;-72
2022/11/01 07:35:49;;;;;;;123.25;57.65;;;;;;;13.65;100.00;100913.97;5089137;28;20024;-73
2022/11/01 07:38:15;;;;;;;128.95;59.40;;;;;;;13.66;100.00;100915.66;5108117;28;20503;-72
2022/11/01 07:40:40;;;;;;;138.25;64.18;;;;;;;13.68;100.00;100902.72;5110331;28;20016;-74
2022/11/01 07:43:06;;;;;;;139.25;63.22;;;;;;;13.54;100.00;100895.31;5108968;28;20020;-73
2022/11/01 07:45:33;;;;;;;130.73;58.03;;;;;;;13.67;100.00;100901.03;5109077;28;20036;-72
2022/11/01 07:48:01;;;;;;;132.68;58.55;;;;;;;13.65;100.00;100903.06;5100771;28;20032;-72
2022/11/01 07:50:27;;;;;;;134.88;57.22;;;;;;;13.72;100.00;100909.50;5081801;28;20028;-68
2022/11/01 07:53:05;;;;;;;125.20;59.05;;;;;;;13.73;100.00;100911.19;5086407;28;20028;-73
2022/11/01 07:55:30;;;;;;;122.95;54.90;;;;;;;13.81;100.00;100905.69;5097712;28;20027;-73
2022/11/01 07:57:56;;;;;;;109.15;53.85;;;;;;;13.90;100.00;100905.69;5100472;28;20038;-71
2022/11/01 08:00:22;;;;;;;114.15;54.40;;;;;;;14.00;100.00;100906.28;5102234;28;20047;-73
2022/11/01 08:02:47;;;;;;;105.70;50.90;;;;;;;14.01;100.00;100908.81;5101055;28;20035;-72
2022/11/01 08:05:13;;;;;;;112.57;50.67;;;;;;;13.99;100.00;100915.47;5101270;28;20047;-71
2022/11/01 08:07:39;;;;;;;101.93;46.70;;;;;;;14.06;100.00;100921.91;5101998;28;20075;-72
2022/11/01 08:10:06;;;;;;;102.15;49.75;;;;;;;14.11;100.00;100919.50;5102511;28;20015;-73
2022/11/01 08:12:32;;;;;;;98.70;47.58;;;;;;;14.22;100.00;100920.97;5102447;28;20024;-73
2022/11/01 08:14:57;;;;;;;98.50;46.80;;;;;;;14.28;100.00;100926.53;5102768;28;20111;-71
2022/11/01 08:17:22;;;;;;;97.72;47.33;;;;;;;14.43;100.00;100928.47;5086813;28;20028;-71
2022/11/01 08:19:48;;;;;;;97.25;45.10;;;;;;;14.45;100.00;100931.84;5082324;28;20046;-71
2022/11/01 08:22:13;;;;;;;86.78;42.42;;;;;;;14.45;100.00;100926.41;5098852;28;20032;-72
2022/11/01 08:24:38;;;;;;;86.70;43.63;;;;;;;14.44;100.00;100935.59;5093711;28;20032;-70
2022/11/01 08:27:04;;;;;;;79.15;41.55;;;;;;;14.37;100.00;100936.31;5103093;28;20080;-71
2022/11/01 08:29:29;;;;;;;86.22;41.00;;;;;;;14.38;100.00;100937.16;5088673;28;20364;-71
2022/11/01 08:31:54;;;;;;;80.25;39.53;;;;;;;14.46;100.00;100938.97;5082559;28;20043;-70
2022/11/01 08:34:20;;;;;;;76.35;39.47;;;;;;;14.48;100.00;100943.28;5098036;28;20121;-71
2022/11/01 08:36:45;;;;;;;65.57;36.72;;;;;;;14.64;100.00;100953.19;5092378;28;20073;-70
2022/11/01 08:39:11;;;;;;;76.38;37.63;;;;;;;14.61;100.00;100953.56;5087751;28;20028;-72
2022/11/01 08:41:36;;;;;;;57.33;33.15;;;;;;;14.72;100.00;100950.38;5087881;28;20031;-71
2022/11/01 08:44:01;;;;;;;80.07;35.17;;;;;;;14.74;100.00;100953.78;5081828;28;20021;-72
2022/11/01 08:46:27;;;;;;;64.18;33.85;;;;;;;14.84;100.00;100953.50;5068539;28;20032;-71
2022/11/01 08:48:58;;;;;;;73.70;33.85;;;;;;;14.86;100.00;100949.56;5068155;28;20025;-71
2022/11/01 08:51:24;;;;;;;67.32;33.08;;;;;;;15.00;100.00;100963.44;5084355;28;20021;-72
2022/11/01 08:53:57;;;;;;;64.75;30.85;;;;;;;14.92;100.00;100951.56;5075408;28;20016;-73
2022/11/01 08:56:23;;;;;;;65.25;30.55;;;;;;;15.07;100.00;100958.94;5073722;28;20020;-71
2022/11/01 08:58:53;;;;;;;59.17;30.85;;;;;;;15.12;100.00;100961.94;5079572;28;20116;-71
2022/11/01 09:01:20;;;;;;;56.78;27.60;;;;;;;15.31;100.00;100955.94;5072504;28;20372;-72
2022/11/01 09:03:45;;;;;;;72.43;29.10;;;;;;;15.37;100.00;100960.66;5087175;28;20020;-72
2022/11/01 09:06:11;;;;;;;59.63;28.27;;;;;;;15.55;100.00;100962.16;5088167;28;20536;-72
2022/11/01 09:08:36;;;;;;;52.33;25.70;;;;;;;15.45;100.00;100960.56;5083872;28;20028;-72
2022/11/01 09:11:02;;;;;;;49.58;25.17;;;;;;;15.64;100.00;100955.59;5067810;28;20396;-71
2022/11/01 09:13:27;;;;;;;54.28;23.52;;;;;;;15.70;100.00;100960.28;5067500;28;20040;-72
2022/11/01 09:15:52;;;;;;;40.88;23.33;;;;;;;15.89;100.00;100959.69;5084644;28;20021;-72
2022/11/01 09:18:18;;;;;;;43.30;19.92;;;;;;;15.83;100.00;100960.47;5078755;28;20028;-72
2022/11/01 09:20:43;;;;;;;45.72;19.98;;;;;;;16.10;100.00;100966.25;5070881;28;20035;-73
2022/11/01 09:23:08;;;;;;;37.75;19.75;;;;;;;16.07;100.00;100963.91;5067593;28;20072;-70
2022/11/01 09:25:34;;;;;;;35.28;16.85;;;;;;;16.17;98.68;100961.72;5088271;28;20031;-72
2022/11/01 09:27:59;;;;;;;35.55;15.82;;;;;;;16.05;98.98;100957.81;5071525;28;20060;-71
2022/11/01 09:30:25;;;;;;;36.95;15.02;;;;;;;16.33;97.93;100957.91;5068133;28;20052;-73
2022/11/01 09:32:50;;;;;;;30.90;14.10;;;;;;;16.47;97.35;100957.84;5068601;28;20021;-73
2022/11/01 09:35:17;;;;;;;29.17;13.82;;;;;;;16.63;97.53;100967.69;5067867;28;20021;-70
2022/11/01 09:37:42;;;;;;;28.63;11.55;;;;;;;16.72;95.00;100965.69;5079930;28;20027;-73
2022/11/01 09:40:09;;;;;;;31.35;11.25;;;;;;;16.95;94.75;100966.34;5068663;28;20020;-72
2022/11/01 09:42:42;;;;;;;35.65;11.25;;;;;;;16.95;94.57;100980.00;5068845;28;20027;-71
2022/11/01 09:45:15;;;;;;;28.27;9.27;;;;;;;16.99;94.10;100972.22;5068125;28;20035;-73
2022/11/01 09:47:44;;;;;;;24.70;9.00;;;;;;;17.32;93.11;100967.00;5068233;28;20055;-72
2022/11/01 09:50:22;;;;;;;20.80;7.03;;;;;;;17.50;91.25;100981.03;5067531;28;20384;-72
2022/11/01 09:52:49;;;;;;;22.25;7.93;;;;;;;17.44;91.72;100987.31;5083514;28;20028;-73
2022/11/01 09:55:20;;;;;;;19.50;7.22;;;;;;;17.25;90.77;100979.81;5071061;28;20472;-71
2022/11/01 09:58:07;;;;;;;19.40;6.47;;;;;;;17.26;90.67;100985.06;5064811;28;20025;-72
2022/11/01 10:00:38;;;;;;;20.40;5.93;;;;;;;17.45;89.99;100990.88;5066015;28;20518;-74
2022/11/01 10:03:35;;;;;;;20.58;6.10;;;;;;;17.16;90.40;101005.63;5063833;28;20024;-72
2022/11/01 10:06:12;;;;;;;14.60;6.32;;;;;;;17.19;89.94;100995.13;5061186;28;20044;-72
2022/11/01 10:08:48;;;;;;;16.42;6.22;;;;;;;17.08;90.53;100993.78;5063131;28;20020;-72
2022/11/01 10:11:52;;;;;;;17.92;5.85;;;;;;;17.15;90.64;100987.50;5062756;28;20025;-74
2022/11/01 10:14:53;;;;;;;14.80;5.85;;;;;;;17.06;90.40;100995.84;5040483;28;20036;-73
2022/11/01 10:17:47;;;;;;;16.52;5.40;;;;;;;17.16;89.67;101016.59;5050264;28;20040;-73
2022/11/01 10:20:13;;;;;;;18.33;6.07;;;;;;;17.14;89.70;101002.22;5062805;28;20425;-73
2022/11/01 10:22:42;;;;;;;26.40;6.80;;;;;;;17.09;89.61;101022.84;5061856;28;20150;-74
2022/11/01 10:25:19;;;;;;;16.00;5.95;;;;;;;16.95;90.72;101020.16;5066834;28;20029;-72
2022/11/01 10:27:52;;;;;;;15.98;6.57;;;;;;;16.99;90.05;101021.47;5069595;28;20032;-72
2022/11/01 10:30:18;;;;;;;20.40;6.18;;;;;;;17.05;90.43;101021.53;5062466;28;20055;-72
2022/11/01 10:32:54;;;;;;;17.55;6.22;;;;;;;17.08;89.69;101043.03;5061512;28;20108;-74
2022/11/01 10:35:34;;;;;;;23.33;6.57;;;;;;;16.83;90.87;101038.16;5059297;28;20031;-72
2022/11/01 10:38:10;;;;;;;15.30;5.90;;;;;;;16.91;90.94;101030.66;5062785;28;20030;-73
2022/11/01 10:40:40;;;;;;;21.02;6.28;;;;;;;16.91;90.50;101030.66;5066137;28;20028;-73
2022/11/01 10:43:13;;;;;;;14.48;6.13;;;;;;;16.93;89.84;101034.03;5061317;28;20856;-73
2022/11/01 10:45:42;;;;;;;22.30;6.68;;;;;;;16.92;90.38;101059.69;5061536;28;20497;-72
2022/11/01 10:48:15;;;;;;;19.80;5.95;;;;;;;17.15;89.73;101036.75;5061907;28;20489;-74
2022/11/01 10:50:41;;;;;;;17.45;5.50;;;;;;;17.31;86.92;101055.63;5061039;28;20032;-71
2022/11/01 10:53:11;;;;;;;19.42;6.13;;;;;;;17.35;86.90;101037.78;5060577;28;20114;-72
2022/11/01 10:55:42;;;;;;;15.88;5.30;;;;;;;17.61;85.52;101037.97;5061431;28;20020;-72
2022/11/01 10:58:10;;;;;;;19.55;4.75;;;;;;;17.48;84.00;101032.41;5059649;28;20032;-72
2022/11/01 11:00:40;;;;;;;18.80;4.28;;;;;;;17.47;82.61;101047.13;5060563;28;20032;-71
2022/11/01 11:03:18;;;;;;;13.88;4.30;;;;;;;17.81;81.40;101026.34;5060878;28;20024;-74
2022/11/01 11:05:45;;;;;;;14.82;4.00;;;;;;;17.98;77.63;101060.53;5061277;28;20291;-73
2022/11/01 11:08:16;;;;;;;11.63;3.63;;;;;;;17.71;77.01;101031.28;5061698;28;20461;-71
2022/11/01 11:10:43;;;;;;;16.67;2.83;;;;;;;17.80;74.54;101036.44;5057238;28;20021;-72
2022/11/01 11:13:09;;;;;;;15.18;3.70;;;;;;;17.74;73.75;101058.31;5062828;28;20028;-73